Time;durP1;ratioP1;P1;durP2;ratioP2;P2;SDS_P1;SDS_P2;PMS_P1;PMS_P2;Temp;Humidity;BMP_temperature;BMP_pressure;BME280_temperature;BME280_humidity;BME280_pressure;Samples;Min_cycle;Max_cycle;Signal;HPM_P1;HPM_P2
2023/07/08 14:21:16;;;;;;;4.80;3.00;;;;;;;25.95;39.99;100675.98;102397;1313;72922;-90
2023/07/08 14:30:18;;;;;;;3.70;2.90;;;;;;;25.96;39.91;100666.63;104503;1312;66931;-91
2023/07/08 14:47:56;;;;;;;4.00;3.10;;;;;;;25.99;39.73;100653.55;103424;1313;67158;-90
2023/07/08 15:05:47;;;;;;;3.70;2.60;;;;;;;26.00;39.58;100647.60;104521;1313;72470;-91
2023/07/08 15:11:39;;;;;;;3.70;2.80;;;;;;;26.01;39.60;100651.95;104465;1312;67223;-89
2023/07/08 15:20:06;;;;;;;3.40;3.00;;;;;;;26.02;39.23;100657.26;104474;1310;72717;-90
2023/07/08 15:26:15;;;;;;;3.60;2.80;;;;;;;26.02;39.35;100653.79;86073;1316;66750;-90
2023/07/08 15:31:54;;;;;;;4.40;2.90;;;;;;;26.02;39.11;100654.51;104539;1313;67135;-89
2023/07/08 15:47:31;;;;;;;2.90;2.60;;;;;;;26.03;38.61;100649.70;83662;1310;66268;-91
2023/07/08 16:48:40;;;;;;;4.40;3.30;;;;;;;25.99;38.97;100671.40;103369;1304;68176;-90
2023/07/08 17:15:37;;;;;;;2.90;2.50;;;;;;;25.96;38.82;100665.45;104454;1310;73031;-90
2023/07/08 17:24:00;;;;;;;3.60;2.90;;;;;;;25.96;38.67;100666.64;104594;1304;67088;-87
2023/07/08 17:27:08;;;;;;;3.90;2.70;;;;;;;25.96;38.77;100662.82;84700;1312;66036;-89
2023/07/08 17:33:31;;;;;;;4.30;3.20;;;;;;;25.95;38.59;100662.94;104112;1313;73369;-90
2023/07/08 17:39:17;;;;;;;3.70;2.90;;;;;;;25.95;38.57;100661.59;104508;1310;67087;31
2023/07/08 17:45:02;;;;;;;4.50;3.30;;;;;;;25.95;38.58;100663.55;104557;1304;67117;-89
2023/07/08 17:51:10;;;;;;;4.10;2.80;;;;;;;25.94;38.57;100670.70;104550;1305;67050;-89
2023/07/08 18:00:20;;;;;;;5.20;3.20;;;;;;;25.93;38.60;100675.96;86285;1307;67057;-89
2023/07/08 18:03:32;;;;;;;3.80;3.10;;;;;;;25.92;38.46;100675.16;91292;1323;72596;-90
2023/07/08 18:09:41;;;;;;;3.90;3.20;;;;;;;25.91;38.41;100672.18;104511;1310;67222;-90
2023/07/08 18:21:12;;;;;;;3.60;3.20;;;;;;;25.91;38.45;100677.96;87231;1304;68316;-89
2023/07/08 18:24:21;;;;;;;3.10;2.80;;;;;;;25.90;38.36;100680.85;100324;1310;67319;-90
2023/07/08 18:30:36;;;;;;;5.40;3.30;;;;;;;25.89;38.33;100685.61;104633;1304;68358;31
2023/07/08 18:42:14;;;;;;;7.20;3.80;;;;;;;25.89;38.35;100697.21;104518;1304;67185;-89
2023/07/08 18:47:51;;;;;;;5.30;3.50;;;;;;;25.89;38.31;100703.94;104494;1304;73100;-89
2023/07/08 18:53:35;;;;;;;4.10;3.30;;;;;;;25.88;38.28;100707.59;88472;1309;65612;31
2023/07/08 19:12:25;;;;;;;5.30;3.80;;;;;;;25.86;38.18;100727.14;85759;1304;67419;-88
2023/07/08 19:19:42;;;;;;;4.90;3.80;;;;;;;25.85;37.99;100732.76;104444;1314;73406;-90
2023/07/08 19:31:50;;;;;;;4.30;3.20;;;;;;;25.84;37.84;100741.58;84955;1308;65981;-90
2023/07/08 19:41:50;;;;;;;4.70;3.10;;;;;;;25.84;38.03;100749.67;83407;1316;65884;-91
2023/07/08 19:47:55;;;;;;;4.10;3.30;;;;;;;25.85;38.13;100752.55;104665;1308;66995;-90
2023/07/08 19:54:15;;;;;;;6.20;3.20;;;;;;;25.84;38.07;100754.21;104308;1310;67078;-89
2023/07/08 19:57:35;;;;;;;5.50;3.50;;;;;;;25.84;38.01;100758.17;96486;1304;68544;31
2023/07/08 20:00:53;;;;;;;4.40;3.20;;;;;;;25.84;38.16;100755.98;101078;1308;67276;-91
2023/07/08 20:06:28;;;;;;;4.00;3.20;;;;;;;25.85;38.16;100754.52;100716;1310;71497;-90
2023/07/08 20:12:13;;;;;;;4.80;2.90;;;;;;;25.84;38.29;100764.01;104480;1310;67778;-90
2023/07/08 20:17:50;;;;;;;4.60;3.40;;;;;;;25.84;38.33;100779.73;104476;1311;67061;-90
2023/07/08 20:23:33;;;;;;;6.40;3.50;;;;;;;25.84;38.12;100779.88;104453;1304;66968;-90
2023/07/08 20:32:25;;;;;;;5.20;3.00;;;;;;;25.84;38.14;100791.89;83679;1304;66778;-90
2023/07/08 20:35:32;;;;;;;4.00;3.30;;;;;;;25.84;38.28;100783.77;104247;1310;72976;-87
2023/07/08 20:45:12;;;;;;;4.70;3.10;;;;;;;25.82;38.29;100792.84;85181;1311;65916;-90
2023/07/08 20:53:58;;;;;;;4.00;2.80;;;;;;;25.82;38.44;100795.94;83605;1317;66808;-89
2023/07/08 21:03:07;;;;;;;4.00;3.20;;;;;;;25.81;38.26;100802.34;90033;1313;66901;-90
2023/07/08 21:08:58;;;;;;;6.00;3.30;;;;;;;25.80;38.43;100802.56;104493;1309;67395;-90
2023/07/08 21:17:26;;;;;;;4.60;2.80;;;;;;;25.80;38.35;100808.34;104482;1303;66842;-89
2023/07/08 21:20:31;;;;;;;6.80;3.50;;;;;;;25.80;38.45;100803.91;104441;1308;73024;-89
2023/07/08 21:26:33;;;;;;;5.20;3.30;;;;;;;25.78;38.39;100803.57;104463;1313;67358;-89
2023/07/08 21:32:28;;;;;;;6.00;3.00;;;;;;;25.78;38.55;100803.84;104519;1310;67195;-90
2023/07/08 21:38:28;;;;;;;4.80;3.20;;;;;;;25.77;38.63;100797.56;103815;1304;67851;31
2023/07/08 21:44:14;;;;;;;5.60;2.80;;;;;;;25.76;38.63;100796.86;89305;1313;65758;-89
2023/07/08 21:50:20;;;;;;;4.80;2.80;;;;;;;25.75;38.51;100798.32;104643;1304;73148;-90
2023/07/08 21:59:06;;;;;;;8.60;3.30;;;;;;;25.75;38.58;100794.41;82490;1313;66726;31
2023/07/08 22:02:40;;;;;;;;;;;;;;;;;;;;;
2023/07/08 22:05:31;;;;;;;5.80;2.90;;;;;;;25.73;38.59;100799.80;102641;1312;73048;-90
2023/07/08 22:11:35;;;;;;;5.60;2.80;;;;;;;25.73;38.66;100797.33;84738;1316;68000;-90
2023/07/08 22:14:47;;;;;;;5.70;2.80;;;;;;;25.72;38.61;100799.55;104292;1306;67662;-91
2023/07/08 22:18:11;;;;;;;5.50;3.20;;;;;;;25.72;38.54;100797.90;104542;1313;67288;-90
2023/07/08 22:24:20;;;;;;;4.50;3.30;;;;;;;25.71;38.66;100789.51;94948;1307;67181;-90
2023/07/08 22:32:59;;;;;;;;;;;;;;;;;;;;;
2023/07/08 22:38:33;;;;;;;4.60;3.30;;;;;;;25.70;38.71;100769.64;104629;1307;67075;-90
2023/07/08 22:46:55;;;;;;;7.10;3.30;;;;;;;25.69;38.69;100771.02;104628;1303;66979;-90
2023/07/08 22:52:31;;;;;;;5.00;3.80;;;;;;;25.69;38.64;100773.36;104545;1311;67013;-90
2023/07/08 22:58:17;;;;;;;7.30;3.90;;;;;;;25.68;38.75;100771.61;104738;1310;67131;31
2023/07/08 23:04:21;;;;;;;6.10;3.90;;;;;;;25.67;38.90;100771.17;96089;1313;71665;-90
2023/07/08 23:10:15;;;;;;;5.90;3.50;;;;;;;25.66;38.95;100760.42;104611;1312;67543;-89
2023/07/08 23:16:32;;;;;;;8.60;4.10;;;;;;;25.64;39.13;100765.13;104435;1313;67008;-90
2023/07/08 23:22:48;;;;;;;5.10;4.20;;;;;;;25.64;39.20;100766.48;83159;1320;65875;-89
2023/07/08 23:29:04;;;;;;;7.40;4.20;;;;;;;25.63;39.25;100768.35;83438;1317;66028;-90
2023/07/08 23:35:04;;;;;;;9.20;4.50;;;;;;;25.63;39.42;100763.51;104711;1307;73128;-91
2023/07/08 23:41:31;;;;;;;5.70;3.90;;;;;;;25.61;39.32;100768.02;104691;1304;67153;-90
2023/07/08 23:47:12;;;;;;;7.90;4.00;;;;;;;25.61;39.31;100771.83;104581;1310;67075;-91
2023/07/08 23:53:15;;;;;;;5.70;4.00;;;;;;;25.60;39.34;100776.98;104572;1310;67369;-91
